createdAt,value
2022-12-24T00:02:44.353Z,99870.94
2022-12-24T00:05:47.116Z,99880.88
2022-12-24T00:08:51.113Z,99879.19
2022-12-24T00:11:53.757Z,99875.91
2022-12-24T00:14:56.045Z,99884.72
2022-12-24T00:17:58.709Z,99874.53
2022-12-24T00:21:03.935Z,99878.94
2022-12-24T00:24:06.847Z,99867.94
2022-12-24T00:27:09.172Z,99896.56
2022-12-24T00:30:12.026Z,99859.66
2022-12-24T00:33:17.120Z,99864.87
2022-12-24T00:36:23.653Z,99862.69
2022-12-24T00:39:26.005Z,99870.69
2022-12-24T00:42:28.618Z,99870.97
2022-12-24T00:45:30.940Z,99894.94
2022-12-24T00:48:33.592Z,99904.00
2022-12-24T00:51:36.399Z,99930.75
2022-12-24T00:54:39.112Z,99925.50
2022-12-24T00:57:41.388Z,99913.94
2022-12-24T01:00:43.968Z,99915.31
2022-12-24T01:03:47.711Z,99916.44
2022-12-24T01:06:50.344Z,99891.88
2022-12-24T01:09:52.617Z,99893.81
2022-12-24T01:12:55.260Z,99872.34
2022-12-24T01:15:57.686Z,99853.59
2022-12-24T01:19:00.349Z,99844.78
2022-12-24T01:22:02.693Z,99832.66
2022-12-24T01:25:05.803Z,99825.47
2022-12-24T01:28:08.121Z,99843.91
2022-12-24T01:31:16.232Z,99833.72
2022-12-24T01:34:18.615Z,99813.84
2022-12-24T01:37:21.192Z,99805.06
2022-12-24T01:40:45.500Z,99791.25
2022-12-24T01:43:48.248Z,99813.84
2022-12-24T01:46:55.591Z,99811.66
2022-12-24T01:50:01.711Z,99820.19
2022-12-24T01:53:06.572Z,99808.91
2022-12-24T01:56:11.764Z,99811.41
2022-12-24T01:59:18.696Z,99818.28
2022-12-24T02:02:22.341Z,99820.47
2022-12-24T02:05:34.305Z,99835.91
2022-12-24T02:08:42.659Z,99819.94
2022-12-24T02:11:46.927Z,99811.41
2022-12-24T02:14:49.453Z,99820.22
2022-12-24T02:18:01.132Z,99823.81
2022-12-24T02:21:21.868Z,99830.97
2022-12-24T02:24:30.349Z,99834.00
2022-12-24T02:27:54.606Z,99835.66
2022-12-24T02:31:06.007Z,99860.75
2022-12-24T02:34:08.301Z,99864.31
2022-12-24T02:37:17.542Z,99865.13
2022-12-24T02:40:27.901Z,99844.75
2022-12-24T02:43:35.941Z,99827.38
2022-12-24T02:46:38.611Z,99840.28
2022-12-24T02:49:45.925Z,99828.66
2022-12-24T02:52:48.870Z,99823.44
2022-12-24T02:56:12.968Z,99825.34
2022-12-24T02:59:24.663Z,99822.31
2022-12-24T03:02:40.394Z,99828.38
2022-12-24T03:05:49.827Z,99834.16
2022-12-24T03:09:02.975Z,99839.72
2022-12-24T03:12:13.486Z,99837.78
2022-12-24T03:15:19.068Z,99860.09
2022-12-24T03:18:24.621Z,99863.97
2022-12-24T03:21:47.499Z,99860.91
2022-12-24T03:24:49.795Z,99842.44
2022-12-24T03:27:53.345Z,99821.19
2022-12-24T03:30:56.110Z,99818.16
2022-12-24T03:33:58.753Z,99818.72
2022-12-24T03:37:01.079Z,99828.06
2022-12-24T03:40:05.555Z,99814.84
2022-12-24T03:43:07.846Z,99831.09
2022-12-24T03:46:10.533Z,99827.75
2022-12-24T03:49:12.852Z,99839.63
2022-12-24T03:52:15.470Z,99846.50
2022-12-24T03:55:17.800Z,99849.00
2022-12-24T03:58:20.389Z,99867.53
2022-12-24T04:01:23.044Z,99860.59
2022-12-24T04:04:25.838Z,99874.38
2022-12-24T04:07:28.274Z,99857.31
2022-12-24T04:10:30.874Z,99857.00
2022-12-24T04:13:33.243Z,99868.88
2022-12-24T04:16:35.850Z,99860.59
2022-12-24T04:19:38.223Z,99855.94
2022-12-24T04:22:42.099Z,99866.66
2022-12-24T04:25:44.469Z,99874.62
2022-12-24T04:28:47.047Z,99859.75
2022-12-24T04:31:49.369Z,99870.53
2022-12-24T04:34:52.045Z,99877.38
2022-12-24T04:37:54.335Z,99859.75
2022-12-24T04:41:19.178Z,99858.06
2022-12-24T04:44:25.294Z,99842.34
2022-12-24T04:47:27.895Z,99858.56
2022-12-24T04:50:30.211Z,99854.69
2022-12-24T04:53:33.385Z,99864.34
2022-12-24T04:56:35.751Z,99857.16
2022-12-24T04:59:38.321Z,99851.59
2022-12-24T05:02:40.926Z,99870.59
2022-12-24T05:05:43.815Z,99881.38
2022-12-24T05:08:46.378Z,99870.00
2022-12-24T05:11:49.011Z,99870.22
2022-12-24T05:14:51.410Z,99880.47
2022-12-24T05:17:54.085Z,99879.66
2022-12-24T05:20:56.367Z,99889.31
2022-12-24T05:24:17.810Z,99871.91
2022-12-24T05:27:20.265Z,99869.16
2022-12-24T05:30:22.854Z,99887.91
2022-12-24T05:33:25.146Z,99881.56
2022-12-24T05:36:27.889Z,99881.84
2022-12-24T05:39:30.281Z,99892.28
2022-12-24T05:42:32.865Z,99890.88
2022-12-24T05:45:35.190Z,99900.56
2022-12-24T05:48:37.916Z,99892.88
2022-12-24T05:51:41.211Z,99910.78
2022-12-24T05:54:43.863Z,99881.84
2022-12-24T05:57:46.176Z,99887.06
2022-12-24T06:00:48.733Z,99881.28
2022-12-24T06:03:52.885Z,99900.59
2022-12-24T06:06:55.361Z,99901.72
2022-12-24T06:09:58.011Z,99901.19
2022-12-24T06:13:00.340Z,99891.53
2022-12-24T06:16:06.074Z,99904.47
2022-12-24T06:19:08.453Z,99896.47
2022-12-24T06:22:11.025Z,99910.03
2022-12-24T06:25:13.401Z,99910.88
2022-12-24T06:28:16.755Z,99906.19
2022-12-24T06:31:21.552Z,99904.38
2022-12-24T06:34:24.150Z,99897.19
2022-12-24T06:37:26.436Z,99910.28
2022-12-24T06:40:29.160Z,99909.06
2022-12-24T06:43:31.450Z,99920.38
2022-12-24T06:46:34.139Z,99926.66
2022-12-24T06:49:36.573Z,99921.03
2022-12-24T06:52:39.303Z,99934.69
2022-12-24T06:55:41.666Z,99949.22
2022-12-24T06:58:44.565Z,99957.25
2022-12-24T07:01:47.068Z,99950.19
2022-12-24T07:04:49.867Z,99953.31
2022-12-24T07:07:52.185Z,99959.69
2022-12-24T07:10:54.923Z,99956.94
2022-12-24T07:13:57.274Z,99959.19
2022-12-24T07:17:00.018Z,99967.62
2022-12-24T07:20:02.776Z,99950.63
2022-12-24T07:23:05.404Z,99952.88
2022-12-24T07:26:08.473Z,99960.84
2022-12-24T07:29:11.181Z,99963.75
2022-12-24T07:32:13.550Z,99968.81
2022-12-24T07:35:16.225Z,99978.84
2022-12-24T07:38:18.521Z,99991.59
2022-12-24T07:41:21.250Z,99992.78
2022-12-24T07:44:23.616Z,99992.25
2022-12-24T07:47:26.327Z,100007.16
2022-12-24T07:50:28.761Z,99998.66
2022-12-24T07:53:31.920Z,100007.81
2022-12-24T07:56:34.574Z,100018.00
2022-12-24T07:59:38.908Z,100015.72
2022-12-24T08:02:41.445Z,100030.78
2022-12-24T08:05:44.758Z,100025.88
2022-12-24T08:08:47.138Z,100025.31
2022-12-24T08:11:52.399Z,100026.69
2022-12-24T08:14:55.924Z,100033.00
2022-12-24T08:17:58.725Z,100057.03
2022-12-24T08:21:01.078Z,100058.16
2022-12-24T08:24:04.087Z,100073.91
2022-12-24T08:27:06.488Z,100079.94
2022-12-24T08:30:10.049Z,100074.94
2022-12-24T08:33:12.426Z,100078.78
2022-12-24T08:36:15.148Z,100093.47
2022-12-24T08:39:17.427Z,100099.56
2022-12-24T08:42:20.212Z,100113.66
2022-12-24T08:45:22.598Z,100121.97
2022-12-24T08:48:25.217Z,100128.03
2022-12-24T08:51:27.550Z,100135.22
2022-12-24T08:54:30.362Z,100144.53
2022-12-24T08:57:36.121Z,100115.47
2022-12-24T09:00:38.762Z,100135.37
2022-12-24T09:03:41.561Z,100119.31
2022-12-24T09:06:44.402Z,100133.91
2022-12-24T09:09:47.156Z,100139.72
2022-12-24T09:12:51.204Z,100136.25
2022-12-24T09:15:55.181Z,100139.34
2022-12-24T09:18:58.911Z,100145.91
2022-12-24T09:22:01.335Z,100157.50
2022-12-24T09:25:06.328Z,100167.38
2022-12-24T09:28:09.033Z,100155.75
2022-12-24T09:31:12.757Z,100155.31
2022-12-24T09:34:15.238Z,100166.47
2022-12-24T09:37:18.260Z,100173.72
2022-12-24T09:40:29.214Z,100165.28
2022-12-24T09:43:34.219Z,100170.78
2022-12-24T09:46:42.148Z,100165.75
2022-12-24T09:49:50.437Z,100163.47
2022-12-24T09:52:54.317Z,100167.19
2022-12-24T09:55:59.927Z,100173.72
2022-12-24T09:59:05.346Z,100171.84
2022-12-24T10:02:19.306Z,100176.37
2022-12-24T10:05:39.072Z,100165.56
2022-12-24T10:09:09.072Z,100174.72
2022-12-24T10:12:26.871Z,100170.38
2022-12-24T10:15:35.215Z,100182.31
2022-12-24T10:19:01.644Z,100176.59
2022-12-24T10:22:22.493Z,100180.50
2022-12-24T10:25:40.804Z,100177.13
2022-12-24T10:28:43.063Z,100172.91
2022-12-24T10:32:27.640Z,100181.41
2022-12-24T10:35:36.046Z,100182.66
2022-12-24T10:38:38.650Z,100185.63
2022-12-24T10:41:41.124Z,100190.09
2022-12-24T10:44:48.067Z,100200.59
2022-12-24T10:47:55.828Z,100190.09
2022-12-24T10:51:03.823Z,100190.72
2022-12-24T10:54:11.584Z,100184.22
2022-12-24T10:57:26.485Z,100189.28
2022-12-24T11:00:35.527Z,100188.03
2022-12-24T11:03:39.913Z,100198.56
2022-12-24T11:07:04.596Z,100190.28
2022-12-24T11:10:08.702Z,100205.66
2022-12-24T11:13:38.385Z,100207.09
2022-12-24T11:16:56.480Z,100207.72
2022-12-24T11:20:02.487Z,100216.78
2022-12-24T11:23:05.871Z,100219.47
2022-12-24T11:26:09.264Z,100231.75
2022-12-24T11:29:24.281Z,100228.34
2022-12-24T11:32:26.635Z,100224.94
2022-12-24T11:35:31.781Z,100232.66
2022-12-24T11:38:35.840Z,100239.69
2022-12-24T11:41:39.719Z,100228.47
2022-12-24T11:44:49.552Z,100235.44
2022-12-24T11:47:56.003Z,100233.72
2022-12-24T11:50:59.902Z,100216.31
2022-12-24T11:54:19.895Z,100235.66
2022-12-24T11:57:27.748Z,100226.50
2022-12-24T12:00:30.711Z,100232.69
2022-12-24T12:03:42.821Z,100230.41
2022-12-24T12:07:14.818Z,100235.47
2022-12-24T12:10:22.833Z,100243.41
2022-12-24T12:13:33.395Z,100236.72
2022-12-24T12:17:04.192Z,100228.47
2022-12-24T12:20:12.749Z,100257.66
2022-12-24T12:23:37.222Z,100240.09
2022-12-24T12:26:43.012Z,100239.28
2022-12-24T12:29:52.745Z,100240.00
2022-12-24T12:33:05.673Z,100249.69
2022-12-24T12:36:11.866Z,100254.94
2022-12-24T12:39:14.539Z,100261.66
2022-12-24T12:42:37.234Z,100262.91
2022-12-24T12:46:06.390Z,100267.34
2022-12-24T12:49:08.933Z,100276.84
2022-12-24T12:52:46.127Z,100275.38
2022-12-24T12:56:26.401Z,100286.62
2022-12-24T12:59:42.892Z,100302.09
2022-12-24T13:03:01.026Z,100305.47
2022-12-24T13:06:09.221Z,100305.78
2022-12-24T13:09:23.764Z,100308.66
2022-12-24T13:12:34.922Z,100301.94
2022-12-24T13:15:50.922Z,100306.19
2022-12-24T13:19:02.108Z,100318.13
2022-12-24T13:22:05.805Z,100320.25
2022-12-24T13:25:21.858Z,100312.97
2022-12-24T13:28:24.345Z,100316.66
2022-12-24T13:31:28.889Z,100311.41
2022-12-24T13:34:36.851Z,100314.56
2022-12-24T13:37:39.141Z,100323.69
2022-12-24T13:40:41.770Z,100328.28
2022-12-24T13:44:03.263Z,100335.16
2022-12-24T13:47:14.657Z,100329.44
2022-12-24T13:50:29.689Z,100344.41
2022-12-24T13:53:39.635Z,100337.06
2022-12-24T13:56:42.730Z,100335.09
2022-12-24T13:59:47.005Z,100344.28
2022-12-24T14:02:55.392Z,100351.56
2022-12-24T14:06:11.568Z,100352.63
2022-12-24T14:09:18.915Z,100350.75
2022-12-24T14:12:45.385Z,100360.38
2022-12-24T14:15:48.967Z,100363.50
2022-12-24T14:19:10.470Z,100373.22
2022-12-24T14:22:30.430Z,100382.06
2022-12-24T14:25:33.391Z,100376.97
2022-12-24T14:28:42.165Z,100383.59
2022-12-24T14:31:55.479Z,100380.00
2022-12-24T14:35:08.996Z,100387.72
2022-12-24T14:38:21.460Z,100390.28
2022-12-24T14:41:41.053Z,100398.84
2022-12-24T14:45:15.435Z,100407.69
2022-12-24T14:48:37.418Z,100407.59
2022-12-24T14:51:57.516Z,100428.13
2022-12-24T14:54:59.965Z,100428.56
2022-12-24T14:58:25.535Z,100427.88
2022-12-24T15:01:31.269Z,100434.47
2022-12-24T15:04:33.983Z,100436.56
2022-12-24T15:07:47.130Z,100438.28
2022-12-24T15:10:55.616Z,100450.56
2022-12-24T15:14:00.650Z,100454.53
2022-12-24T15:17:05.452Z,100454.47
2022-12-24T15:20:20.374Z,100451.22
2022-12-24T15:23:30.159Z,100452.75
2022-12-24T15:26:36.586Z,100461.59
2022-12-24T15:29:44.067Z,100469.44
2022-12-24T15:32:56.717Z,100462.56
2022-12-24T15:35:59.419Z,100460.13
2022-12-24T15:39:08.448Z,100487.00
2022-12-24T15:42:18.742Z,100477.91
2022-12-24T15:45:28.130Z,100488.44
2022-12-24T15:48:32.734Z,100491.56
2022-12-24T15:51:40.120Z,100498.78
2022-12-24T15:54:52.310Z,100490.81
2022-12-24T15:57:58.173Z,100487.50
2022-12-24T16:01:06.868Z,100489.41
2022-12-24T16:04:22.039Z,100499.41
2022-12-24T16:07:26.761Z,100503.59
2022-12-24T16:10:29.993Z,100489.81
2022-12-24T16:13:36.446Z,100505.81
2022-12-24T16:16:42.832Z,100515.31
2022-12-24T16:19:49.854Z,100501.59
2022-12-24T16:22:52.497Z,100514.69
2022-12-24T16:25:54.813Z,100509.38
2022-12-24T16:28:57.521Z,100504.31
2022-12-24T16:32:00.089Z,100503.91
2022-12-24T16:35:04.892Z,100510.12
2022-12-24T16:38:07.258Z,100512.41
2022-12-24T16:41:09.859Z,100518.87
2022-12-24T16:44:12.156Z,100517.22
2022-12-24T16:47:22.200Z,100521.69
2022-12-24T16:50:24.716Z,100516.22
2022-12-24T16:53:27.311Z,100531.19
2022-12-24T16:56:29.788Z,100516.75
2022-12-24T16:59:32.739Z,100537.84
2022-12-24T17:02:35.287Z,100541.19
2022-12-24T17:05:39.300Z,100550.66
2022-12-24T17:08:41.681Z,100550.41
2022-12-24T17:11:44.291Z,100554.03
2022-12-24T17:14:46.663Z,100555.16
2022-12-24T17:17:49.502Z,100560.47
2022-12-24T17:21:02.345Z,100560.22
2022-12-24T17:24:05.306Z,100564.62
2022-12-24T17:27:07.629Z,100566.78
2022-12-24T17:30:11.631Z,100560.94
2022-12-24T17:33:15.103Z,100573.94
2022-12-24T17:36:18.868Z,100578.66
2022-12-24T17:39:27.545Z,100580.34
2022-12-24T17:42:30.564Z,100581.75
2022-12-24T17:45:32.907Z,100595.88
2022-12-24T17:48:35.581Z,100591.22
2022-12-24T17:51:44.843Z,100596.19
2022-12-24T17:54:48.183Z,100591.19
2022-12-24T17:57:50.479Z,100592.00
2022-12-24T18:00:55.171Z,100585.53
2022-12-24T18:04:02.771Z,100586.00
2022-12-24T18:07:05.211Z,100605.38
2022-12-24T18:10:08.572Z,100606.84
2022-12-24T18:13:18.906Z,100621.56
2022-12-24T18:16:21.995Z,100614.44
2022-12-24T18:19:24.384Z,100619.69
2022-12-24T18:22:27.027Z,100615.59
2022-12-24T18:25:29.383Z,100618.91
2022-12-24T18:28:32.471Z,100623.91
2022-12-24T18:31:35.113Z,100622.28
2022-12-24T18:34:37.760Z,100633.41
2022-12-24T18:37:40.213Z,100637.84
2022-12-24T18:40:42.825Z,100640.09
2022-12-24T18:43:45.126Z,100633.75
2022-12-24T18:46:47.745Z,100631.81
2022-12-24T18:49:50.180Z,100637.91
2022-12-24T18:52:53.080Z,100656.75
2022-12-24T18:55:55.385Z,100654.53
2022-12-24T18:59:00.934Z,100660.09
2022-12-24T19:02:03.702Z,100662.03
2022-12-24T19:05:07.128Z,100673.66
2022-12-24T19:08:37.612Z,100673.66
2022-12-24T19:11:33.571Z,100664.50
2022-12-24T19:14:35.907Z,100663.94
2022-12-24T19:17:38.534Z,100664.19
2022-12-24T19:20:41.114Z,100679.44
2022-12-24T19:23:44.502Z,100682.22
2022-12-24T19:26:46.871Z,100683.88
2022-12-24T19:29:49.499Z,100677.50
2022-12-24T19:32:51.852Z,100674.44
2022-12-24T19:35:54.472Z,100696.06
2022-12-24T19:38:58.012Z,100701.31
2022-12-24T19:42:01.550Z,100692.72
2022-12-24T19:45:04.091Z,100701.31
2022-12-24T19:48:06.718Z,100708.25
2022-12-24T19:51:11.355Z,100706.91
2022-12-24T19:54:18.995Z,100704.97
2022-12-24T19:57:21.975Z,100722.13
2022-12-24T20:00:24.869Z,100722.41
2022-12-24T20:03:27.543Z,100717.91
2022-12-24T20:06:32.535Z,100704.91
2022-12-24T20:09:35.208Z,100715.44
2022-12-24T20:12:37.550Z,100726.22
2022-12-24T20:15:41.748Z,100723.69
2022-12-24T20:18:44.463Z,100732.00
2022-12-24T20:21:47.112Z,100735.34
2022-12-24T20:24:49.736Z,100746.94
2022-12-24T20:27:53.090Z,100735.87
2022-12-24T20:30:55.554Z,100717.84
2022-12-24T20:33:59.990Z,100723.66
2022-12-24T20:37:02.366Z,100728.06
2022-12-24T20:40:06.639Z,100728.59
2022-12-24T20:43:09.043Z,100732.78
2022-12-24T20:46:12.058Z,100740.50
2022-12-24T20:49:14.519Z,100736.34
2022-12-24T20:52:17.257Z,100736.91
2022-12-24T20:55:21.409Z,100743.00
2022-12-24T20:58:24.196Z,100744.66
2022-12-24T21:01:26.932Z,100752.94
2022-12-24T21:04:29.741Z,100756.84
2022-12-24T21:07:32.107Z,100761.50
2022-12-24T21:10:35.765Z,100757.91
2022-12-24T21:13:38.123Z,100761.50
2022-12-24T21:16:41.295Z,100767.31
2022-12-24T21:19:43.722Z,100768.97
2022-12-24T21:22:46.413Z,100769.25
2022-12-24T21:26:03.316Z,100774.50
2022-12-24T21:29:08.092Z,100776.37
2022-12-24T21:32:10.489Z,100787.19
2022-12-24T21:35:13.299Z,100784.44
2022-12-24T21:38:16.182Z,100782.22
2022-12-24T21:41:23.541Z,100791.03
2022-12-24T21:44:25.922Z,100813.22
2022-12-24T21:47:28.515Z,100806.00
2022-12-24T21:50:49.737Z,100792.97
2022-12-24T21:54:11.355Z,100803.22
2022-12-24T21:57:32.708Z,100807.34
2022-12-24T22:00:35.672Z,100806.22
2022-12-24T22:03:38.659Z,100804.56
2022-12-24T22:06:59.656Z,100805.91
2022-12-24T22:10:21.108Z,100810.63
2022-12-24T22:13:24.583Z,100807.59
2022-12-24T22:16:28.050Z,100816.59
2022-12-24T22:19:30.621Z,100817.63
2022-12-24T22:22:33.296Z,100817.38
2022-12-24T22:25:36.693Z,100820.34
2022-12-24T22:28:39.515Z,100823.09
2022-12-24T22:31:41.832Z,100821.41
2022-12-24T22:34:44.884Z,100808.06
2022-12-24T22:37:47.229Z,100830.19
2022-12-24T22:40:49.949Z,100828.47
2022-12-24T22:43:52.298Z,100816.00
2022-12-24T22:46:54.919Z,100824.63
2022-12-24T22:49:57.287Z,100832.94
2022-12-24T22:52:59.869Z,100830.41
2022-12-24T22:56:02.701Z,100826.25
2022-12-24T22:59:05.901Z,100830.69
2022-12-24T23:02:08.449Z,100833.44
2022-12-24T23:05:15.014Z,100830.37
2022-12-24T23:08:17.381Z,100825.12
2022-12-24T23:11:20.336Z,100820.06
2022-12-24T23:14:41.515Z,100839.94
2022-12-24T23:17:44.115Z,100837.69
2022-12-24T23:20:46.547Z,100835.50
2022-12-24T23:23:49.534Z,100827.75
2022-12-24T23:26:51.928Z,100836.94
2022-12-24T23:29:54.566Z,100826.41
2022-12-24T23:32:56.957Z,100830.03
2022-12-24T23:35:59.980Z,100829.47
2022-12-24T23:39:02.329Z,100846.09
2022-12-24T23:42:05.039Z,100837.78
2022-12-24T23:45:07.826Z,100831.44
2022-12-24T23:48:10.615Z,100849.38
2022-12-24T23:51:19.562Z,100841.03
2022-12-24T23:54:22.252Z,100849.06
2022-12-24T23:57:24.632Z,100856.88
